sensor_id;sensor_type;location;lat;lon;timestamp;temperature;humidity
56322;DHT22;42227;6.376;-10.782;2024-03-17T00:00:39;28.30;70.70
56322;DHT22;42227;6.376;-10.782;2024-03-17T00:03:06;28.40;56.40
56322;DHT22;42227;6.376;-10.782;2024-03-17T00:05:33;28.30;45.20
56322;DHT22;42227;6.376;-10.782;2024-03-17T00:08:01;28.30;43.40
56322;DHT22;42227;6.376;-10.782;2024-03-17T00:10:28;28.30;53.10
56322;DHT22;42227;6.376;-10.782;2024-03-17T00:12:55;28.40;58.70
56322;DHT22;42227;6.376;-10.782;2024-03-17T00:15:21;28.30;52.00
56322;DHT22;42227;6.376;-10.782;2024-03-17T00:17:48;28.40;35.10
56322;DHT22;42227;6.376;-10.782;2024-03-17T00:20:15;28.30;19.40
56322;DHT22;42227;6.376;-10.782;2024-03-17T00:22:42;28.10;22.70
56322;DHT22;42227;6.376;-10.782;2024-03-17T00:25:09;28.00;15.30
56322;DHT22;42227;6.376;-10.782;2024-03-17T00:27:36;27.70;28.20
56322;DHT22;42227;6.376;-10.782;2024-03-17T00:30:03;27.50;43.00
56322;DHT22;42227;6.376;-10.782;2024-03-17T00:32:30;27.50;61.60
56322;DHT22;42227;6.376;-10.782;2024-03-17T00:34:57;27.80;71.10
56322;DHT22;42227;6.376;-10.782;2024-03-17T00:37:24;27.90;67.90
56322;DHT22;42227;6.376;-10.782;2024-03-17T00:39:50;27.70;75.10
56322;DHT22;42227;6.376;-10.782;2024-03-17T00:42:18;28.00;82.00
56322;DHT22;42227;6.376;-10.782;2024-03-17T00:44:45;28.20;62.80
56322;DHT22;42227;6.376;-10.782;2024-03-17T00:47:12;27.90;53.90
56322;DHT22;42227;6.376;-10.782;2024-03-17T00:49:38;27.90;73.10
56322;DHT22;42227;6.376;-10.782;2024-03-17T00:52:05;28.00;64.00
56322;DHT22;42227;6.376;-10.782;2024-03-17T00:54:32;28.00;58.50
56322;DHT22;42227;6.376;-10.782;2024-03-17T00:56:59;28.10;48.20
56322;DHT22;42227;6.376;-10.782;2024-03-17T00:59:27;28.20;47.90
56322;DHT22;42227;6.376;-10.782;2024-03-17T01:01:53;28.10;41.10
56322;DHT22;42227;6.376;-10.782;2024-03-17T01:04:21;28.10;33.40
56322;DHT22;42227;6.376;-10.782;2024-03-17T01:06:48;28.10;46.20
56322;DHT22;42227;6.376;-10.782;2024-03-17T01:09:15;27.50;47.70
56322;DHT22;42227;6.376;-10.782;2024-03-17T01:11:42;27.50;68.60
56322;DHT22;42227;6.376;-10.782;2024-03-17T01:14:09;27.70;85.10
56322;DHT22;42227;6.376;-10.782;2024-03-17T01:16:36;27.90;91.00
56322;DHT22;42227;6.376;-10.782;2024-03-17T01:19:02;28.00;84.70
56322;DHT22;42227;6.376;-10.782;2024-03-17T01:21:29;27.80;74.90
56322;DHT22;42227;6.376;-10.782;2024-03-17T01:23:56;27.60;73.10
56322;DHT22;42227;6.376;-10.782;2024-03-17T01:26:26;27.60;70.70
56322;DHT22;42227;6.376;-10.782;2024-03-17T01:28:53;27.80;87.70
56322;DHT22;42227;6.376;-10.782;2024-03-17T01:31:20;27.80;76.20
56322;DHT22;42227;6.376;-10.782;2024-03-17T01:33:47;27.70;92.50
56322;DHT22;42227;6.376;-10.782;2024-03-17T01:36:14;27.40;90.90
56322;DHT22;42227;6.376;-10.782;2024-03-17T01:38:40;27.30;99.90
56322;DHT22;42227;6.376;-10.782;2024-03-17T01:41:07;27.60;99.90
56322;DHT22;42227;6.376;-10.782;2024-03-17T01:43:34;27.60;99.90
56322;DHT22;42227;6.376;-10.782;2024-03-17T01:46:01;27.60;99.90
56322;DHT22;42227;6.376;-10.782;2024-03-17T01:48:29;27.50;99.90
56322;DHT22;42227;6.376;-10.782;2024-03-17T01:50:56;27.60;99.90
56322;DHT22;42227;6.376;-10.782;2024-03-17T01:53:25;27.70;99.90
56322;DHT22;42227;6.376;-10.782;2024-03-17T01:55:54;27.60;99.90
56322;DHT22;42227;6.376;-10.782;2024-03-17T01:58:25;27.60;99.90
56322;DHT22;42227;6.376;-10.782;2024-03-17T02:00:53;27.50;96.30
56322;DHT22;42227;6.376;-10.782;2024-03-17T02:03:20;27.70;99.90
56322;DHT22;42227;6.376;-10.782;2024-03-17T02:05:47;27.80;95.20
56322;DHT22;42227;6.376;-10.782;2024-03-17T02:08:15;27.90;77.80
56322;DHT22;42227;6.376;-10.782;2024-03-17T02:10:42;28.00;77.50
56322;DHT22;42227;6.376;-10.782;2024-03-17T02:13:09;28.10;65.20
56322;DHT22;42227;6.376;-10.782;2024-03-17T02:15:37;27.90;62.50
56322;DHT22;42227;6.376;-10.782;2024-03-17T02:18:03;27.80;67.20
56322;DHT22;42227;6.376;-10.782;2024-03-17T02:20:31;27.60;83.10
56322;DHT22;42227;6.376;-10.782;2024-03-17T02:22:57;27.70;83.60
56322;DHT22;42227;6.376;-10.782;2024-03-17T02:25:24;27.80;81.20
56322;DHT22;42227;6.376;-10.782;2024-03-17T02:27:51;27.90;80.20
56322;DHT22;42227;6.376;-10.782;2024-03-17T02:30:18;27.70;91.70
56322;DHT22;42227;6.376;-10.782;2024-03-17T02:32:52;28.00;84.60
56322;DHT22;42227;6.376;-10.782;2024-03-17T02:35:19;28.00;77.50
56322;DHT22;42227;6.376;-10.782;2024-03-17T02:37:46;27.90;77.30
56322;DHT22;42227;6.376;-10.782;2024-03-17T02:40:13;27.90;86.20
56322;DHT22;42227;6.376;-10.782;2024-03-17T02:42:40;27.90;75.60
56322;DHT22;42227;6.376;-10.782;2024-03-17T02:45:08;27.80;74.50
56322;DHT22;42227;6.376;-10.782;2024-03-17T02:47:35;27.80;83.90
56322;DHT22;42227;6.376;-10.782;2024-03-17T02:50:02;28.00;66.20
56322;DHT22;42227;6.376;-10.782;2024-03-17T02:52:29;28.00;55.50
56322;DHT22;42227;6.376;-10.782;2024-03-17T02:54:59;28.00;47.40
56322;DHT22;42227;6.376;-10.782;2024-03-17T02:57:27;28.00;47.20
56322;DHT22;42227;6.376;-10.782;2024-03-17T02:59:54;27.80;43.30
56322;DHT22;42227;6.376;-10.782;2024-03-17T03:02:21;27.70;46.80
56322;DHT22;42227;6.376;-10.782;2024-03-17T03:04:47;27.70;50.20
56322;DHT22;42227;6.376;-10.782;2024-03-17T03:07:14;27.60;55.50
56322;DHT22;42227;6.376;-10.782;2024-03-17T03:09:41;27.50;66.80
56322;DHT22;42227;6.376;-10.782;2024-03-17T03:12:08;27.60;61.70
56322;DHT22;42227;6.376;-10.782;2024-03-17T03:14:35;27.60;66.40
56322;DHT22;42227;6.376;-10.782;2024-03-17T03:17:02;27.70;61.60
56322;DHT22;42227;6.376;-10.782;2024-03-17T03:19:29;27.70;53.00
56322;DHT22;42227;6.376;-10.782;2024-03-17T03:21:56;27.60;54.60
56322;DHT22;42227;6.376;-10.782;2024-03-17T03:24:23;27.60;56.90
56322;DHT22;42227;6.376;-10.782;2024-03-17T03:26:50;27.50;66.30
56322;DHT22;42227;6.376;-10.782;2024-03-17T03:29:16;27.40;69.70
56322;DHT22;42227;6.376;-10.782;2024-03-17T03:31:43;27.40;79.70
56322;DHT22;42227;6.376;-10.782;2024-03-17T03:34:10;27.60;71.20
56322;DHT22;42227;6.376;-10.782;2024-03-17T03:36:39;27.60;59.70
56322;DHT22;42227;6.376;-10.782;2024-03-17T03:39:05;27.70;57.50
56322;DHT22;42227;6.376;-10.782;2024-03-17T03:41:33;27.70;63.70
56322;DHT22;42227;6.376;-10.782;2024-03-17T03:43:59;27.60;58.20
56322;DHT22;42227;6.376;-10.782;2024-03-17T03:46:26;27.50;65.30
56322;DHT22;42227;6.376;-10.782;2024-03-17T03:48:53;27.50;62.60
56322;DHT22;42227;6.376;-10.782;2024-03-17T03:51:20;27.50;64.30
56322;DHT22;42227;6.376;-10.782;2024-03-17T03:53:47;27.40;72.90
56322;DHT22;42227;6.376;-10.782;2024-03-17T03:56:14;27.50;76.70
56322;DHT22;42227;6.376;-10.782;2024-03-17T03:58:41;27.50;74.10
56322;DHT22;42227;6.376;-10.782;2024-03-17T04:01:09;27.50;79.40
56322;DHT22;42227;6.376;-10.782;2024-03-17T04:03:36;27.50;73.80
56322;DHT22;42227;6.376;-10.782;2024-03-17T04:06:05;27.50;68.80
56322;DHT22;42227;6.376;-10.782;2024-03-17T04:08:33;27.50;71.50
56322;DHT22;42227;6.376;-10.782;2024-03-17T04:11:01;27.50;72.40
56322;DHT22;42227;6.376;-10.782;2024-03-17T04:13:29;27.50;93.70
56322;DHT22;42227;6.376;-10.782;2024-03-17T04:15:57;27.70;82.90
56322;DHT22;42227;6.376;-10.782;2024-03-17T04:18:24;27.90;56.30
56322;DHT22;42227;6.376;-10.782;2024-03-17T04:20:53;28.00;52.30
56322;DHT22;42227;6.376;-10.782;2024-03-17T04:23:23;28.00;45.40
56322;DHT22;42227;6.376;-10.782;2024-03-17T04:25:51;28.00;34.90
56322;DHT22;42227;6.376;-10.782;2024-03-17T04:28:18;27.80;32.00
56322;DHT22;42227;6.376;-10.782;2024-03-17T04:30:45;27.80;36.60
56322;DHT22;42227;6.376;-10.782;2024-03-17T04:33:12;27.80;47.90
56322;DHT22;42227;6.376;-10.782;2024-03-17T04:35:40;27.80;43.20
56322;DHT22;42227;6.376;-10.782;2024-03-17T04:38:07;27.60;52.60
56322;DHT22;42227;6.376;-10.782;2024-03-17T04:40:43;27.80;50.30
56322;DHT22;42227;6.376;-10.782;2024-03-17T04:44:06;27.80;42.70
56322;DHT22;42227;6.376;-10.782;2024-03-17T04:46:33;27.50;66.70
56322;DHT22;42227;6.376;-10.782;2024-03-17T04:49:00;27.50;84.50
56322;DHT22;42227;6.376;-10.782;2024-03-17T04:51:27;27.50;70.70
56322;DHT22;42227;6.376;-10.782;2024-03-17T04:53:54;27.60;72.20
56322;DHT22;42227;6.376;-10.782;2024-03-17T04:56:21;27.60;71.30
56322;DHT22;42227;6.376;-10.782;2024-03-17T04:58:48;27.60;58.90
56322;DHT22;42227;6.376;-10.782;2024-03-17T05:01:15;27.60;60.00
56322;DHT22;42227;6.376;-10.782;2024-03-17T05:03:41;27.60;55.10
56322;DHT22;42227;6.376;-10.782;2024-03-17T05:06:08;27.50;63.90
56322;DHT22;42227;6.376;-10.782;2024-03-17T05:08:35;27.50;65.80
56322;DHT22;42227;6.376;-10.782;2024-03-17T05:11:04;27.40;83.00
56322;DHT22;42227;6.376;-10.782;2024-03-17T05:13:32;27.40;70.30
56322;DHT22;42227;6.376;-10.782;2024-03-17T05:16:02;27.10;91.10
56322;DHT22;42227;6.376;-10.782;2024-03-17T05:18:30;27.10;99.90
56322;DHT22;42227;6.376;-10.782;2024-03-17T05:21:01;27.30;99.90
56322;DHT22;42227;6.376;-10.782;2024-03-17T05:23:29;27.60;97.00
56322;DHT22;42227;6.376;-10.782;2024-03-17T05:25:57;27.10;94.90
56322;DHT22;42227;6.376;-10.782;2024-03-17T05:28:25;26.90;99.90
56322;DHT22;42227;6.376;-10.782;2024-03-17T05:30:52;26.90;99.90
56322;DHT22;42227;6.376;-10.782;2024-03-17T05:33:20;27.10;99.90
56322;DHT22;42227;6.376;-10.782;2024-03-17T05:35:55;27.00;99.90
56322;DHT22;42227;6.376;-10.782;2024-03-17T05:38:23;27.10;99.90
56322;DHT22;42227;6.376;-10.782;2024-03-17T05:41:00;27.20;99.90
56322;DHT22;42227;6.376;-10.782;2024-03-17T05:43:29;27.20;99.90
56322;DHT22;42227;6.376;-10.782;2024-03-17T05:46:00;27.40;99.90
56322;DHT22;42227;6.376;-10.782;2024-03-17T05:48:28;27.20;99.90
56322;DHT22;42227;6.376;-10.782;2024-03-17T05:50:55;27.20;99.90
56322;DHT22;42227;6.376;-10.782;2024-03-17T05:53:23;27.00;99.90
56322;DHT22;42227;6.376;-10.782;2024-03-17T05:55:50;26.80;99.90
56322;DHT22;42227;6.376;-10.782;2024-03-17T05:58:17;26.80;99.90
56322;DHT22;42227;6.376;-10.782;2024-03-17T06:00:44;26.80;99.90
56322;DHT22;42227;6.376;-10.782;2024-03-17T06:03:11;27.10;99.90
56322;DHT22;42227;6.376;-10.782;2024-03-17T06:05:39;27.20;99.90
56322;DHT22;42227;6.376;-10.782;2024-03-17T06:08:07;27.30;99.90
56322;DHT22;42227;6.376;-10.782;2024-03-17T06:10:34;27.40;99.90
56322;DHT22;42227;6.376;-10.782;2024-03-17T06:13:02;27.10;99.90
56322;DHT22;42227;6.376;-10.782;2024-03-17T06:16:30;27.10;99.90
56322;DHT22;42227;6.376;-10.782;2024-03-17T06:18:57;27.20;99.90
56322;DHT22;42227;6.376;-10.782;2024-03-17T06:21:24;27.20;99.90
56322;DHT22;42227;6.376;-10.782;2024-03-17T06:23:51;27.20;99.90
56322;DHT22;42227;6.376;-10.782;2024-03-17T06:26:18;27.20;99.90
56322;DHT22;42227;6.376;-10.782;2024-03-17T06:28:45;27.30;99.90
56322;DHT22;42227;6.376;-10.782;2024-03-17T06:31:12;27.30;99.90
56322;DHT22;42227;6.376;-10.782;2024-03-17T06:33:39;27.20;99.90
56322;DHT22;42227;6.376;-10.782;2024-03-17T06:36:06;27.20;99.90
56322;DHT22;42227;6.376;-10.782;2024-03-17T06:38:33;27.20;99.90
56322;DHT22;42227;6.376;-10.782;2024-03-17T06:41:00;27.30;99.90
56322;DHT22;42227;6.376;-10.782;2024-03-17T06:43:27;27.20;99.90
56322;DHT22;42227;6.376;-10.782;2024-03-17T06:45:58;27.30;99.90
56322;DHT22;42227;6.376;-10.782;2024-03-17T06:48:26;27.50;99.90
56322;DHT22;42227;6.376;-10.782;2024-03-17T06:50:53;27.40;99.90
56322;DHT22;42227;6.376;-10.782;2024-03-17T06:53:21;27.50;99.90
56322;DHT22;42227;6.376;-10.782;2024-03-17T06:55:58;27.40;99.90
56322;DHT22;42227;6.376;-10.782;2024-03-17T06:58:27;27.50;99.90
56322;DHT22;42227;6.376;-10.782;2024-03-17T07:00:59;27.60;99.90
56322;DHT22;42227;6.376;-10.782;2024-03-17T07:03:30;27.50;99.90
56322;DHT22;42227;6.376;-10.782;2024-03-17T07:05:59;27.50;99.90
56322;DHT22;42227;6.376;-10.782;2024-03-17T07:08:26;27.60;99.90
56322;DHT22;42227;6.376;-10.782;2024-03-17T07:11:04;27.60;99.90
56322;DHT22;42227;6.376;-10.782;2024-03-17T07:13:35;27.70;99.90
56322;DHT22;42227;6.376;-10.782;2024-03-17T07:16:04;27.80;99.90
56322;DHT22;42227;6.376;-10.782;2024-03-17T07:18:32;28.00;99.90
56322;DHT22;42227;6.376;-10.782;2024-03-17T07:21:00;28.20;99.90
56322;DHT22;42227;6.376;-10.782;2024-03-17T07:23:27;28.20;98.40
56322;DHT22;42227;6.376;-10.782;2024-03-17T07:25:55;28.30;99.90
56322;DHT22;42227;6.376;-10.782;2024-03-17T07:28:23;28.50;74.20
56322;DHT22;42227;6.376;-10.782;2024-03-17T07:30:55;28.50;71.30
56322;DHT22;42227;6.376;-10.782;2024-03-17T07:33:23;28.50;75.60
56322;DHT22;42227;6.376;-10.782;2024-03-17T07:35:51;28.60;70.80
56322;DHT22;42227;6.376;-10.782;2024-03-17T07:38:18;29.00;36.80
56322;DHT22;42227;6.376;-10.782;2024-03-17T07:40:54;28.70;41.10
56322;DHT22;42227;6.376;-10.782;2024-03-17T07:43:22;28.30;51.30
56322;DHT22;42227;6.376;-10.782;2024-03-17T07:46:00;28.20;63.20
56322;DHT22;42227;6.376;-10.782;2024-03-17T07:48:28;28.20;69.70
56322;DHT22;42227;6.376;-10.782;2024-03-17T07:50:56;28.10;75.50
56322;DHT22;42227;6.376;-10.782;2024-03-17T07:53:23;28.00;85.20
56322;DHT22;42227;6.376;-10.782;2024-03-17T07:56:01;28.10;91.20
56322;DHT22;42227;6.376;-10.782;2024-03-17T07:58:28;28.10;91.10
56322;DHT22;42227;6.376;-10.782;2024-03-17T08:01:02;28.00;85.30
56322;DHT22;42227;6.376;-10.782;2024-03-17T08:03:33;28.10;91.60
56322;DHT22;42227;6.376;-10.782;2024-03-17T08:06:02;28.10;87.80
56322;DHT22;42227;6.376;-10.782;2024-03-17T08:08:29;28.10;85.20
56322;DHT22;42227;6.376;-10.782;2024-03-17T08:10:57;28.30;86.90
56322;DHT22;42227;6.376;-10.782;2024-03-17T08:13:24;28.40;60.50
56322;DHT22;42227;6.376;-10.782;2024-03-17T08:15:59;28.40;61.20
56322;DHT22;42227;6.376;-10.782;2024-03-17T08:18:27;28.30;58.00
56322;DHT22;42227;6.376;-10.782;2024-03-17T08:20:54;28.30;60.70
56322;DHT22;42227;6.376;-10.782;2024-03-17T08:23:22;28.30;67.10
56322;DHT22;42227;6.376;-10.782;2024-03-17T08:25:57;28.40;60.40
56322;DHT22;42227;6.376;-10.782;2024-03-17T08:28:25;28.60;45.60
56322;DHT22;42227;6.376;-10.782;2024-03-17T08:30:59;28.70;25.20
56322;DHT22;42227;6.376;-10.782;2024-03-17T08:33:27;29.00;26.80
56322;DHT22;42227;6.376;-10.782;2024-03-17T08:36:01;29.30;17.00
56322;DHT22;42227;6.376;-10.782;2024-03-17T08:38:30;29.80;19.00
56322;DHT22;42227;6.376;-10.782;2024-03-17T08:40:58;30.60;1.00
56322;DHT22;42227;6.376;-10.782;2024-03-17T08:43:28;30.90;1.00
56322;DHT22;42227;6.376;-10.782;2024-03-17T08:46:00;31.30;1.00
56322;DHT22;42227;6.376;-10.782;2024-03-17T08:48:27;31.70;1.00
56322;DHT22;42227;6.376;-10.782;2024-03-17T08:50:55;32.10;1.00
56322;DHT22;42227;6.376;-10.782;2024-03-17T08:53:22;32.90;1.00
56322;DHT22;42227;6.376;-10.782;2024-03-17T08:55:50;33.70;1.00
56322;DHT22;42227;6.376;-10.782;2024-03-17T08:58:17;34.30;99.90
56322;DHT22;42227;6.376;-10.782;2024-03-17T09:00:44;34.60;99.90
56322;DHT22;42227;6.376;-10.782;2024-03-17T09:03:12;34.80;99.90
56322;DHT22;42227;6.376;-10.782;2024-03-17T09:05:39;35.20;99.90
56322;DHT22;42227;6.376;-10.782;2024-03-17T09:08:07;35.00;99.90
56322;DHT22;42227;6.376;-10.782;2024-03-17T09:10:39;34.40;99.90
56322;DHT22;42227;6.376;-10.782;2024-03-17T09:13:09;34.10;99.90
56322;DHT22;42227;6.376;-10.782;2024-03-17T09:15:39;34.20;99.90
56322;DHT22;42227;6.376;-10.782;2024-03-17T09:18:05;34.50;99.90
56322;DHT22;42227;6.376;-10.782;2024-03-17T09:20:33;34.90;99.90
56322;DHT22;42227;6.376;-10.782;2024-03-17T09:22:59;35.10;99.90
56322;DHT22;42227;6.376;-10.782;2024-03-17T09:25:26;35.20;99.90
56322;DHT22;42227;6.376;-10.782;2024-03-17T09:27:53;35.20;99.90
56322;DHT22;42227;6.376;-10.782;2024-03-17T09:30:20;35.30;99.90
56322;DHT22;42227;6.376;-10.782;2024-03-17T09:32:47;34.90;99.90
56322;DHT22;42227;6.376;-10.782;2024-03-17T09:35:14;34.70;99.90
56322;DHT22;42227;6.376;-10.782;2024-03-17T09:37:40;34.60;99.90
56322;DHT22;42227;6.376;-10.782;2024-03-17T09:40:13;34.80;99.90
56322;DHT22;42227;6.376;-10.782;2024-03-17T09:42:44;35.00;99.90
56322;DHT22;42227;6.376;-10.782;2024-03-17T09:45:11;34.80;99.90
56322;DHT22;42227;6.376;-10.782;2024-03-17T09:47:39;34.80;99.90
56322;DHT22;42227;6.376;-10.782;2024-03-17T09:50:13;34.90;99.90
56322;DHT22;42227;6.376;-10.782;2024-03-17T09:52:42;34.80;99.90
56322;DHT22;42227;6.376;-10.782;2024-03-17T09:55:09;34.70;99.90
56322;DHT22;42227;6.376;-10.782;2024-03-17T09:57:40;34.50;99.90
56322;DHT22;42227;6.376;-10.782;2024-03-17T10:00:11;34.50;99.90
56322;DHT22;42227;6.376;-10.782;2024-03-17T10:02:42;34.50;99.90
56322;DHT22;42227;6.376;-10.782;2024-03-17T10:05:19;34.40;99.90
56322;DHT22;42227;6.376;-10.782;2024-03-17T10:07:46;34.50;99.90
56322;DHT22;42227;6.376;-10.782;2024-03-17T10:10:13;34.40;99.90
56322;DHT22;42227;6.376;-10.782;2024-03-17T10:12:40;34.30;99.90
56322;DHT22;42227;6.376;-10.782;2024-03-17T10:15:11;34.30;99.90
56322;DHT22;42227;6.376;-10.782;2024-03-17T10:17:38;34.30;99.90
56322;DHT22;42227;6.376;-10.782;2024-03-17T10:20:16;34.20;99.90
56322;DHT22;42227;6.376;-10.782;2024-03-17T10:23:00;34.10;99.90
56322;DHT22;42227;6.376;-10.782;2024-03-17T10:25:28;34.10;99.90
56322;DHT22;42227;6.376;-10.782;2024-03-17T10:27:56;34.10;99.90
56322;DHT22;42227;6.376;-10.782;2024-03-17T10:30:24;33.90;99.90
56322;DHT22;42227;6.376;-10.782;2024-03-17T10:32:58;33.70;99.90
56322;DHT22;42227;6.376;-10.782;2024-03-17T10:35:36;33.50;99.90
56322;DHT22;42227;6.376;-10.782;2024-03-17T10:38:04;33.00;1.00
56322;DHT22;42227;6.376;-10.782;2024-03-17T10:40:32;32.90;1.00
56322;DHT22;42227;6.376;-10.782;2024-03-17T10:43:00;32.90;99.90
56322;DHT22;42227;6.376;-10.782;2024-03-17T10:45:28;32.90;1.00
56322;DHT22;42227;6.376;-10.782;2024-03-17T10:47:55;32.70;1.00
56322;DHT22;42227;6.376;-10.782;2024-03-17T10:50:23;32.50;1.00
56322;DHT22;42227;6.376;-10.782;2024-03-17T10:52:51;32.60;1.00
56322;DHT22;42227;6.376;-10.782;2024-03-17T10:55:25;32.70;1.00
56322;DHT22;42227;6.376;-10.782;2024-03-17T10:57:55;32.60;1.00
56322;DHT22;42227;6.376;-10.782;2024-03-17T11:00:24;32.70;1.00
56322;DHT22;42227;6.376;-10.782;2024-03-17T11:02:54;32.80;1.00
56322;DHT22;42227;6.376;-10.782;2024-03-17T11:05:26;32.90;1.00
56322;DHT22;42227;6.376;-10.782;2024-03-17T11:07:54;33.00;1.00
56322;DHT22;42227;6.376;-10.782;2024-03-17T11:10:29;33.10;1.00
56322;DHT22;42227;6.376;-10.782;2024-03-17T11:13:00;33.20;1.00
56322;DHT22;42227;6.376;-10.782;2024-03-17T11:15:37;33.30;1.00
56322;DHT22;42227;6.376;-10.782;2024-03-17T11:20:42;33.30;1.00
56322;DHT22;42227;6.376;-10.782;2024-03-17T11:23:10;33.10;1.00
56322;DHT22;42227;6.376;-10.782;2024-03-17T11:25:52;32.90;1.00
56322;DHT22;42227;6.376;-10.782;2024-03-17T11:31:37;32.60;1.00
56322;DHT22;42227;6.376;-10.782;2024-03-17T11:34:05;32.70;1.00
56322;DHT22;42227;6.376;-10.782;2024-03-17T11:36:37;32.90;1.00
56322;DHT22;42227;6.376;-10.782;2024-03-17T11:39:08;33.20;1.00
56322;DHT22;42227;6.376;-10.782;2024-03-17T11:46:50;33.40;99.90
56322;DHT22;42227;6.376;-10.782;2024-03-17T11:49:21;33.30;99.90
56322;DHT22;42227;6.376;-10.782;2024-03-17T11:51:49;33.30;1.00
56322;DHT22;42227;6.376;-10.782;2024-03-17T11:54:20;33.10;99.90
56322;DHT22;42227;6.376;-10.782;2024-03-17T11:56:51;33.00;99.90
56322;DHT22;42227;6.376;-10.782;2024-03-17T11:59:19;32.90;1.00
56322;DHT22;42227;6.376;-10.782;2024-03-17T12:01:47;32.70;1.00
56322;DHT22;42227;6.376;-10.782;2024-03-17T12:04:15;32.70;1.00
56322;DHT22;42227;6.376;-10.782;2024-03-17T12:06:54;33.00;1.00
56322;DHT22;42227;6.376;-10.782;2024-03-17T12:09:22;33.30;1.00
56322;DHT22;42227;6.376;-10.782;2024-03-17T12:12:30;33.40;99.90
56322;DHT22;42227;6.376;-10.782;2024-03-17T12:14:56;33.40;1.00
56322;DHT22;42227;6.376;-10.782;2024-03-17T12:17:24;33.30;99.90
56322;DHT22;42227;6.376;-10.782;2024-03-17T12:19:52;33.10;99.90
56322;DHT22;42227;6.376;-10.782;2024-03-17T12:22:23;33.30;99.90
56322;DHT22;42227;6.376;-10.782;2024-03-17T12:24:52;33.30;99.90
56322;DHT22;42227;6.376;-10.782;2024-03-17T12:27:21;33.10;99.90
56322;DHT22;42227;6.376;-10.782;2024-03-17T12:29:49;33.20;1.00
56322;DHT22;42227;6.376;-10.782;2024-03-17T12:32:25;33.20;1.00
56322;DHT22;42227;6.376;-10.782;2024-03-17T12:34:54;33.20;99.90
56322;DHT22;42227;6.376;-10.782;2024-03-17T12:37:24;33.50;99.90
56322;DHT22;42227;6.376;-10.782;2024-03-17T12:39:50;33.50;99.90
56322;DHT22;42227;6.376;-10.782;2024-03-17T12:42:23;33.50;99.90
56322;DHT22;42227;6.376;-10.782;2024-03-17T12:47:22;33.80;99.90
56322;DHT22;42227;6.376;-10.782;2024-03-17T12:49:56;33.90;99.90
56322;DHT22;42227;6.376;-10.782;2024-03-17T12:52:24;33.90;99.90
56322;DHT22;42227;6.376;-10.782;2024-03-17T12:54:59;33.90;99.90
56322;DHT22;42227;6.376;-10.782;2024-03-17T12:57:26;33.80;99.90
56322;DHT22;42227;6.376;-10.782;2024-03-17T12:59:53;33.80;99.90
56322;DHT22;42227;6.376;-10.782;2024-03-17T13:02:19;33.60;99.90
56322;DHT22;42227;6.376;-10.782;2024-03-17T13:04:46;33.40;99.90
56322;DHT22;42227;6.376;-10.782;2024-03-17T13:07:13;33.20;99.90
56322;DHT22;42227;6.376;-10.782;2024-03-17T13:09:40;33.20;99.90
56322;DHT22;42227;6.376;-10.782;2024-03-17T13:12:16;33.40;99.90
56322;DHT22;42227;6.376;-10.782;2024-03-17T13:14:43;33.50;99.90
56322;DHT22;42227;6.376;-10.782;2024-03-17T13:17:15;33.60;99.90
56322;DHT22;42227;6.376;-10.782;2024-03-17T13:19:44;33.30;99.90
56322;DHT22;42227;6.376;-10.782;2024-03-17T13:22:12;33.30;99.90
56322;DHT22;42227;6.376;-10.782;2024-03-17T13:24:39;33.20;99.90
56322;DHT22;42227;6.376;-10.782;2024-03-17T13:27:06;33.40;1.00
56322;DHT22;42227;6.376;-10.782;2024-03-17T13:29:35;33.40;99.90
56322;DHT22;42227;6.376;-10.782;2024-03-17T13:32:02;33.50;99.90
56322;DHT22;42227;6.376;-10.782;2024-03-17T13:34:30;33.60;99.90
56322;DHT22;42227;6.376;-10.782;2024-03-17T13:36:57;33.80;99.90
56322;DHT22;42227;6.376;-10.782;2024-03-17T13:39:29;34.00;99.90
56322;DHT22;42227;6.376;-10.782;2024-03-17T13:41:57;33.90;99.90
56322;DHT22;42227;6.376;-10.782;2024-03-17T13:44:24;33.90;99.90
56322;DHT22;42227;6.376;-10.782;2024-03-17T13:46:50;33.60;99.90
56322;DHT22;42227;6.376;-10.782;2024-03-17T13:49:17;33.70;99.90
56322;DHT22;42227;6.376;-10.782;2024-03-17T13:51:44;34.00;99.90
56322;DHT22;42227;6.376;-10.782;2024-03-17T13:54:11;33.70;99.90
56322;DHT22;42227;6.376;-10.782;2024-03-17T13:56:38;33.50;99.90
56322;DHT22;42227;6.376;-10.782;2024-03-17T13:59:05;33.20;1.00
56322;DHT22;42227;6.376;-10.782;2024-03-17T14:01:33;33.30;99.90
56322;DHT22;42227;6.376;-10.782;2024-03-17T14:03:59;33.30;1.00
56322;DHT22;42227;6.376;-10.782;2024-03-17T14:06:26;33.50;1.00
56322;DHT22;42227;6.376;-10.782;2024-03-17T14:08:53;33.50;99.90
56322;DHT22;42227;6.376;-10.782;2024-03-17T14:11:20;33.60;99.90
56322;DHT22;42227;6.376;-10.782;2024-03-17T14:13:47;33.60;99.90
56322;DHT22;42227;6.376;-10.782;2024-03-17T14:16:14;33.60;99.90
56322;DHT22;42227;6.376;-10.782;2024-03-17T14:18:40;33.70;99.90
56322;DHT22;42227;6.376;-10.782;2024-03-17T14:21:07;33.60;99.90
56322;DHT22;42227;6.376;-10.782;2024-03-17T14:23:34;33.50;99.90
56322;DHT22;42227;6.376;-10.782;2024-03-17T14:26:01;33.40;1.00
56322;DHT22;42227;6.376;-10.782;2024-03-17T14:28:28;33.30;1.00
56322;DHT22;42227;6.376;-10.782;2024-03-17T14:30:55;33.30;1.00
56322;DHT22;42227;6.376;-10.782;2024-03-17T14:33:22;33.40;1.00
56322;DHT22;42227;6.376;-10.782;2024-03-17T14:35:56;33.40;1.00
56322;DHT22;42227;6.376;-10.782;2024-03-17T14:38:23;33.40;1.00
56322;DHT22;42227;6.376;-10.782;2024-03-17T14:40:53;33.30;1.00
56322;DHT22;42227;6.376;-10.782;2024-03-17T14:43:20;33.30;1.00
56322;DHT22;42227;6.376;-10.782;2024-03-17T14:45:48;33.40;1.00
56322;DHT22;42227;6.376;-10.782;2024-03-17T14:48:15;33.40;1.00
56322;DHT22;42227;6.376;-10.782;2024-03-17T14:50:42;33.50;1.00
56322;DHT22;42227;6.376;-10.782;2024-03-17T14:53:09;33.50;1.00
56322;DHT22;42227;6.376;-10.782;2024-03-17T14:55:35;33.50;99.90
56322;DHT22;42227;6.376;-10.782;2024-03-17T14:58:03;33.70;1.00
56322;DHT22;42227;6.376;-10.782;2024-03-17T15:00:29;33.50;1.00
56322;DHT22;42227;6.376;-10.782;2024-03-17T15:02:56;33.40;99.90
56322;DHT22;42227;6.376;-10.782;2024-03-17T15:05:23;33.50;1.00
56322;DHT22;42227;6.376;-10.782;2024-03-17T15:07:53;33.50;1.00
56322;DHT22;42227;6.376;-10.782;2024-03-17T15:10:20;33.60;1.00
56322;DHT22;42227;6.376;-10.782;2024-03-17T15:12:47;33.50;99.90
56322;DHT22;42227;6.376;-10.782;2024-03-17T15:15:21;33.70;1.00
56322;DHT22;42227;6.376;-10.782;2024-03-17T15:17:48;33.70;99.90
56322;DHT22;42227;6.376;-10.782;2024-03-17T15:20:15;33.60;99.90
56322;DHT22;42227;6.376;-10.782;2024-03-17T15:22:45;33.30;99.90
56322;DHT22;42227;6.376;-10.782;2024-03-17T15:25:13;33.30;99.90
56322;DHT22;42227;6.376;-10.782;2024-03-17T15:27:44;33.30;1.00
56322;DHT22;42227;6.376;-10.782;2024-03-17T15:30:18;33.30;1.00
56322;DHT22;42227;6.376;-10.782;2024-03-17T15:32:46;33.30;99.90
56322;DHT22;42227;6.376;-10.782;2024-03-17T15:35:13;33.40;99.90
56322;DHT22;42227;6.376;-10.782;2024-03-17T15:37:44;33.30;1.00
56322;DHT22;42227;6.376;-10.782;2024-03-17T15:40:11;33.20;1.00